Time;durP1;ratioP1;P1;durP2;ratioP2;P2;SDS_P1;SDS_P2;PMS_P1;PMS_P2;Temp;Humidity;BMP_temperature;BMP_pressure;BME280_temperature;BME280_humidity;BME280_pressure;Samples;Min_cycle;Max_cycle;Signal;HPM_P1;HPM_P2
2024/02/04 00:02:15;;;;;;;4.90;1.48;;;23.00;42.70;;;;;;10463952;28;20129;-58
2024/02/04 00:07:16;;;;;;;6.93;1.70;;;23.00;42.70;;;;;;10455309;28;20128;-55
2024/02/04 00:12:18;;;;;;;4.60;1.50;;;22.90;42.80;;;;;;10459666;28;20503;-51
2024/02/04 00:17:21;;;;;;;5.50;1.63;;;22.90;42.80;;;;;;10462149;28;20434;-50
2024/02/04 00:22:23;;;;;;;4.50;1.50;;;22.80;42.80;;;;;;10463649;28;20128;-49
2024/02/04 00:27:24;;;;;;;4.97;1.60;;;22.60;42.90;;;;;;10465035;28;20522;-51
2024/02/04 00:32:27;;;;;;;3.67;1.58;;;22.60;42.90;;;;;;10458234;28;20063;-51
2024/02/04 00:37:29;;;;;;;4.75;1.80;;;22.70;42.70;;;;;;10455949;28;20052;-53
2024/02/04 00:42:30;;;;;;;5.35;1.60;;;22.50;42.80;;;;;;10454582;28;20068;-51
2024/02/04 00:47:33;;;;;;;4.65;1.50;;;22.50;42.80;;;;;;10459603;28;20405;-48
2024/02/04 00:52:35;;;;;;;2.53;1.15;;;22.50;42.90;;;;;;10461139;28;20140;-48
2024/02/04 00:57:36;;;;;;;5.20;1.38;;;22.30;42.90;;;;;;10467603;28;20132;-48
2024/02/04 01:02:39;;;;;;;4.13;1.50;;;22.40;42.80;;;;;;10462076;28;20123;-47
2024/02/04 01:07:41;;;;;;;3.25;1.27;;;22.30;43.10;;;;;;10463959;28;20040;-47
2024/02/04 01:12:43;;;;;;;2.97;1.20;;;22.20;43.30;;;;;;10452762;28;20455;-49
2024/02/04 01:17:46;;;;;;;4.70;1.77;;;22.20;43.40;;;;;;10463636;28;20136;-48
2024/02/04 01:22:47;;;;;;;4.07;1.35;;;22.20;43.50;;;;;;10456696;28;20055;-52
2024/02/04 01:27:49;;;;;;;6.53;1.45;;;22.20;43.50;;;;;;10455822;28;20569;-52
2024/02/04 01:32:52;;;;;;;5.47;1.30;;;22.10;43.50;;;;;;10457875;28;20135;-48
2024/02/04 01:37:53;;;;;;;6.68;1.60;;;21.90;43.90;;;;;;10464017;28;20052;-51
2024/02/04 01:42:56;;;;;;;4.07;1.33;;;22.00;43.90;;;;;;10460873;28;20498;-47
2024/02/04 01:47:58;;;;;;;5.38;1.58;;;22.20;43.70;;;;;;10445754;28;20040;-49
2024/02/04 01:53:00;;;;;;;5.72;1.52;;;22.20;43.50;;;;;;10452377;28;20485;-50
2024/02/04 01:58:02;;;;;;;6.15;1.50;;;22.20;43.40;;;;;;10450036;28;20140;-48
2024/02/04 02:03:06;;;;;;;3.65;1.30;;;22.20;43.40;;;;;;10453000;28;20450;-48
2024/02/04 02:08:07;;;;;;;4.88;1.10;;;22.20;43.20;;;;;;10458558;28;20147;-50
2024/02/04 02:13:12;;;;;;;3.78;1.13;;;22.10;43.40;;;;;;10458568;28;20136;-50
2024/02/04 02:18:18;;;;;;;4.13;1.40;;;22.30;42.90;;;;;;10460113;28;20414;-47
2024/02/04 02:23:23;;;;;;;4.18;1.17;;;22.30;43.00;;;;;;10467423;28;20132;-51
2024/02/04 02:28:26;;;;;;;3.33;1.25;;;22.30;42.90;;;;;;10444866;28;20132;-48
2024/02/04 02:33:27;;;;;;;3.25;1.10;;;22.30;42.80;;;;;;10458473;28;20661;-50
2024/02/04 02:38:39;;;;;;;3.85;1.40;;;22.30;42.70;;;;;;10454305;28;20391;-48
2024/02/04 02:43:42;;;;;;;2.78;1.10;;;22.40;42.40;;;;;;10454803;28;20941;-50
2024/02/04 02:48:43;;;;;;;3.78;1.40;;;22.30;42.70;;;;;;10456432;28;20161;-53
2024/02/04 02:53:45;;;;;;;2.08;1.00;;;22.20;42.60;;;;;;10467004;28;20052;-48
2024/02/04 02:58:48;;;;;;;3.30;1.10;;;22.30;42.60;;;;;;10460894;28;20482;-49
2024/02/04 03:03:50;;;;;;;3.90;1.20;;;22.20;42.60;;;;;;10454521;28;20495;-54
2024/02/04 03:08:51;;;;;;;4.05;1.20;;;22.20;42.50;;;;;;10461394;28;20069;-51
2024/02/04 03:13:54;;;;;;;3.83;1.08;;;22.30;42.30;;;;;;10468624;28;20041;-57
2024/02/04 03:18:56;;;;;;;3.65;1.20;;;22.20;42.30;;;;;;10462535;28;20140;-53
2024/02/04 03:23:57;;;;;;;4.40;1.10;;;22.30;42.20;;;;;;10463834;28;20110;-55
2024/02/04 03:29:00;;;;;;;5.10;1.38;;;22.30;42.00;;;;;;10465472;28;20463;-55
2024/02/04 03:34:02;;;;;;;3.60;1.23;;;22.30;42.10;;;;;;10468201;28;20128;-52
2024/02/04 03:39:04;;;;;;;2.15;0.98;;;22.20;42.10;;;;;;10471507;28;20132;-53
2024/02/04 03:44:07;;;;;;;3.08;1.08;;;22.20;42.10;;;;;;10452892;28;20041;-58
2024/02/04 03:49:08;;;;;;;3.97;0.93;;;22.20;42.00;;;;;;10466634;28;20220;-56
2024/02/04 03:54:10;;;;;;;3.17;0.93;;;22.30;41.90;;;;;;10467496;28;20140;-56
2024/02/04 03:59:13;;;;;;;4.13;1.00;;;22.20;41.90;;;;;;10459376;28;20164;-55
2024/02/04 04:04:15;;;;;;;2.63;1.20;;;22.20;41.90;;;;;;10460865;28;20057;-56
2024/02/04 04:09:16;;;;;;;1.55;0.88;;;22.60;41.20;;;;;;10470297;28;20549;-55
2024/02/04 04:14:19;;;;;;;3.00;1.20;;;22.80;40.80;;;;;;10465544;28;20143;-53
2024/02/04 04:19:21;;;;;;;2.22;0.98;;;23.00;40.60;;;;;;10453873;28;20072;-55
2024/02/04 04:24:22;;;;;;;3.08;1.02;;;23.10;40.40;;;;;;10461111;28;20570;-53
2024/02/04 04:29:26;;;;;;;2.88;1.15;;;23.20;40.30;;;;;;10466421;28;20482;-53
2024/02/04 04:34:28;;;;;;;3.25;1.10;;;23.20;40.40;;;;;;10457571;28;20132;-53
2024/02/04 04:39:29;;;;;;;2.00;0.80;;;23.20;40.20;;;;;;10458666;28;20125;-54
2024/02/04 04:44:32;;;;;;;3.25;1.02;;;23.20;40.30;;;;;;10462262;28;20133;-56
2024/02/04 04:49:34;;;;;;;3.78;1.08;;;23.30;40.20;;;;;;10471394;28;20122;-56
2024/02/04 04:54:35;;;;;;;2.95;1.08;;;23.20;40.20;;;;;;10453322;28;20140;-56
2024/02/04 04:59:38;;;;;;;3.67;0.93;;;23.20;40.10;;;;;;10460024;28;20140;-56
2024/02/04 05:04:43;;;;;;;2.38;1.00;;;23.20;40.10;;;;;;10463148;28;20384;-55
2024/02/04 05:09:45;;;;;;;2.78;0.98;;;23.50;39.90;;;;;;10460509;28;20131;-52
2024/02/04 05:14:48;;;;;;;2.03;0.88;;;23.50;39.60;;;;;;10454798;28;20045;-52
2024/02/04 05:19:50;;;;;;;2.85;1.20;;;23.50;39.60;;;;;;10458653;28;20132;-56
2024/02/04 05:24:51;;;;;;;3.38;1.27;;;23.40;39.70;;;;;;10470583;28;20041;-54
2024/02/04 05:29:54;;;;;;;3.22;1.20;;;23.50;39.50;;;;;;10455321;28;20434;-55
2024/02/04 05:34:56;;;;;;;2.42;1.10;;;23.40;39.70;;;;;;10455852;28;20120;-57
2024/02/04 05:39:58;;;;;;;2.60;1.08;;;23.50;39.30;;;;;;10459635;28;20465;-57
2024/02/04 05:45:01;;;;;;;3.22;1.20;;;23.70;39.10;;;;;;10465447;28;20451;-52
2024/02/04 05:50:05;;;;;;;2.40;1.20;;;23.70;39.10;;;;;;10455730;28;20122;-56
2024/02/04 05:55:08;;;;;;;2.80;1.10;;;23.70;39.10;;;;;;10458053;28;20052;-56
2024/02/04 06:00:12;;;;;;;3.00;1.23;;;23.60;39.20;;;;;;10465867;28;20128;-53
2024/02/04 06:05:14;;;;;;;3.70;1.10;;;23.60;39.20;;;;;;10466733;28;20459;-55
2024/02/04 06:10:18;;;;;;;2.22;1.10;;;23.30;39.60;;;;;;10456898;28;20132;-56
2024/02/04 06:15:21;;;;;;;3.22;0.95;;;23.10;39.80;;;;;;10450249;28;20576;-55
2024/02/04 06:20:23;;;;;;;2.65;1.17;;;23.10;39.80;;;;;;10463871;28;20415;-52
2024/02/04 06:25:24;;;;;;;2.40;1.10;;;23.10;39.90;;;;;;10460426;28;20128;-53
2024/02/04 06:30:27;;;;;;;2.35;1.00;;;23.20;40.00;;;;;;10457287;28;20139;-48
2024/02/04 06:35:29;;;;;;;2.90;1.20;;;23.10;40.00;;;;;;10458223;28;20132;-48
2024/02/04 06:40:30;;;;;;;2.65;1.00;;;23.10;39.90;;;;;;10462574;28;20485;-48
2024/02/04 06:45:33;;;;;;;3.53;1.27;;;23.10;40.00;;;;;;10459831;28;20128;-47
2024/02/04 06:50:35;;;;;;;2.28;0.85;;;23.20;39.90;;;;;;10459128;28;20128;-51
2024/02/04 06:55:37;;;;;;;2.55;1.08;;;23.20;39.80;;;;;;10450469;28;20129;-51
2024/02/04 07:00:40;;;;;;;5.28;1.33;;;23.20;40.50;;;;;;10459228;28;20235;-52
2024/02/04 07:05:42;;;;;;;3.17;1.17;;;23.20;39.80;;;;;;10453864;28;20472;-49
2024/02/04 07:10:44;;;;;;;2.85;0.90;;;23.10;40.00;;;;;;10451290;28;20049;-50
2024/02/04 07:15:47;;;;;;;4.57;1.40;;;23.10;39.90;;;;;;10461948;28;20671;-48
2024/02/04 07:20:48;;;;;;;4.85;1.50;;;23.30;39.90;;;;;;10451295;28;20147;-52
2024/02/04 07:25:50;;;;;;;3.20;1.30;;;23.20;39.80;;;;;;10447635;28;20403;-45
2024/02/04 07:30:53;;;;;;;2.92;1.00;;;23.20;39.80;;;;;;10448675;28;20530;-50
2024/02/04 07:35:55;;;;;;;2.80;1.00;;;23.20;39.70;;;;;;10452236;28;20136;-50
2024/02/04 07:40:58;;;;;;;3.90;1.23;;;23.20;39.80;;;;;;10456202;28;20171;-49
2024/02/04 07:46:03;;;;;;;3.15;1.10;;;23.20;39.80;;;;;;10450322;28;20052;-48
2024/02/04 07:51:04;;;;;;;4.93;1.30;;;23.10;39.90;;;;;;10459015;28;20495;-45
2024/02/04 07:56:07;;;;;;;5.70;1.35;;;23.30;40.00;;;;;;10463984;28;20128;-46
2024/02/04 08:01:10;;;;;;;3.08;1.20;;;23.30;40.30;;;;;;10461044;28;20072;-50
2024/02/04 08:06:12;;;;;;;6.88;1.20;;;23.20;41.00;;;;;;10457731;28;20135;-50
2024/02/04 08:11:17;;;;;;;11.10;1.63;;;23.30;41.00;;;;;;10460052;28;20127;-49
2024/02/04 08:16:21;;;;;;;8.98;1.52;;;23.20;41.70;;;;;;10461083;28;20055;-45
2024/02/04 08:21:22;;;;;;;10.07;1.90;;;23.10;41.90;;;;;;10460025;28;20767;-52
2024/02/04 08:26:24;;;;;;;14.77;1.92;;;23.10;42.70;;;;;;10460692;28;20136;-49
2024/02/04 08:31:27;;;;;;;9.32;2.65;;;23.10;43.00;;;;;;10467169;28;20064;-49
2024/02/04 08:36:30;;;;;;;11.77;2.28;;;23.40;41.80;;;;;;10459398;28;20063;-50
2024/02/04 08:41:32;;;;;;;12.45;1.98;;;23.50;40.60;;;;;;10455038;28;20041;-52
2024/02/04 08:46:35;;;;;;;9.05;2.40;;;23.40;39.00;;;;;;10448346;28;20052;-51
2024/02/04 08:51:36;;;;;;;7.28;2.08;;;23.30;37.80;;;;;;10457011;28;20128;-50
2024/02/04 08:56:38;;;;;;;6.05;2.10;;;23.20;37.40;;;;;;10460721;28;20451;-53
2024/02/04 09:01:41;;;;;;;7.13;2.13;;;23.10;37.50;;;;;;10459872;28;20606;-52
2024/02/04 09:06:43;;;;;;;19.70;10.02;;;23.00;38.20;;;;;;10463542;28;20128;-48
2024/02/04 09:11:44;;;;;;;24.55;10.35;;;23.10;38.20;;;;;;10461301;28;20090;-53
2024/02/04 09:16:47;;;;;;;48.35;23.70;;;23.00;39.50;;;;;;10457570;28;20167;-50
2024/02/04 09:21:49;;;;;;;45.28;25.63;;;23.20;40.00;;;;;;10459572;28;20143;-51
2024/02/04 09:26:51;;;;;;;36.38;22.75;;;23.50;39.30;;;;;;10454149;28;20141;-50
2024/02/04 09:31:54;;;;;;;34.00;17.70;;;23.50;39.50;;;;;;10457481;28;20137;-54
2024/02/04 09:36:55;;;;;;;28.67;15.90;;;23.70;39.40;;;;;;10456940;28;20127;-49
2024/02/04 09:41:57;;;;;;;25.75;12.95;;;23.60;39.80;;;;;;10460367;28;20051;-47
2024/02/04 09:47:00;;;;;;;26.35;11.13;;;23.50;40.50;;;;;;10467035;28;20045;-50
2024/02/04 09:52:05;;;;;;;21.30;8.68;;;23.30;42.10;;;;;;10450557;28;20128;-49
2024/02/04 09:57:07;;;;;;;21.05;7.57;;;23.50;43.60;;;;;;10464773;28;20134;-52
2024/02/04 10:02:09;;;;;;;21.77;7.22;;;23.50;43.70;;;;;;10455723;28;20135;-50
2024/02/04 10:07:13;;;;;;;23.55;6.30;;;23.60;43.90;;;;;;10457942;28;20051;-53
2024/02/04 10:12:14;;;;;;;23.90;5.78;;;23.50;44.70;;;;;;10459134;28;20148;-48
2024/02/04 10:17:20;;;;;;;22.23;5.82;;;23.50;45.90;;;;;;10455912;28;20041;-52
2024/02/04 10:22:21;;;;;;;19.13;4.93;;;23.60;45.40;;;;;;10457271;28;20107;-55
2024/02/04 10:27:23;;;;;;;23.17;5.20;;;23.60;44.50;;;;;;10453548;28;20143;-51
2024/02/04 10:32:26;;;;;;;13.50;3.53;;;23.30;45.20;;;;;;10452854;28;20065;-52
2024/02/04 10:37:27;;;;;;;16.95;4.28;;;23.30;45.20;;;;;;10453990;28;20426;-53
2024/02/04 10:42:29;;;;;;;20.92;3.95;;;23.30;45.80;;;;;;10453982;28;20127;-55
2024/02/04 10:47:33;;;;;;;16.27;3.03;;;23.30;45.90;;;;;;10456571;28;20554;-51
2024/02/04 10:52:37;;;;;;;17.02;3.30;;;23.30;46.20;;;;;;10459113;28;20050;-53
2024/02/04 10:57:39;;;;;;;8.80;3.05;;;23.60;45.00;;;;;;10458259;28;20079;-52
2024/02/04 11:02:42;;;;;;;14.18;2.72;;;23.80;42.40;;;;;;10460775;28;20047;-49
2024/02/04 11:07:44;;;;;;;20.75;2.50;;;23.80;40.60;;;;;;10448841;28;20479;-55
2024/02/04 11:12:46;;;;;;;15.90;2.60;;;23.70;41.60;;;;;;10458861;28;20052;-54
2024/02/04 11:18:06;;;;;;;14.27;2.97;;;23.80;42.50;;;;;;10452454;28;20072;-49
2024/02/04 11:23:36;;;;;;;9.80;2.15;;;23.90;43.10;;;;;;10451512;28;20131;-51
2024/02/04 11:28:39;;;;;;;10.55;2.10;;;24.10;43.00;;;;;;10462751;28;20041;-54
2024/02/04 11:33:42;;;;;;;10.48;2.28;;;23.90;43.60;;;;;;10470805;28;20522;-51
2024/02/04 11:38:43;;;;;;;11.52;2.30;;;23.80;43.40;;;;;;10467845;28;20045;-55
2024/02/04 11:43:46;;;;;;;12.15;2.13;;;23.40;45.00;;;;;;10459549;28;20139;-52
2024/02/04 11:48:54;;;;;;;12.82;2.45;;;23.40;45.40;;;;;;10463079;28;20084;-55
2024/02/04 11:53:55;;;;;;;16.52;3.85;;;23.80;41.80;;;;;;10464753;28;20057;-50
2024/02/04 11:58:57;;;;;;;19.55;5.70;;;23.80;40.10;;;;;;10450582;28;20132;-49
2024/02/04 12:04:00;;;;;;;20.98;4.93;;;24.00;40.40;;;;;;10455148;28;20045;-50
2024/02/04 12:09:02;;;;;;;14.05;3.70;;;24.00;41.20;;;;;;10462832;28;20486;-48
2024/02/04 12:14:05;;;;;;;10.73;2.90;;;23.50;40.40;;;;;;10472325;28;20078;-47
2024/02/04 12:19:08;;;;;;;11.75;2.97;;;22.90;37.00;;;;;;10460124;28;20041;-52
2024/02/04 12:24:09;;;;;;;11.60;2.60;;;23.10;38.90;;;;;;10445866;28;20132;-48
2024/02/04 12:29:11;;;;;;;6.80;2.30;;;23.30;39.20;;;;;;10459470;28;20041;-53
2024/02/04 12:34:14;;;;;;;9.32;2.30;;;23.40;39.70;;;;;;10464561;28;20144;-49
2024/02/04 12:39:16;;;;;;;6.72;2.00;;;23.40;39.60;;;;;;10460016;28;20495;-50
2024/02/04 12:44:19;;;;;;;9.90;2.47;;;23.30;39.80;;;;;;10460741;28;20060;-50
2024/02/04 12:49:22;;;;;;;8.68;2.50;;;23.30;40.00;;;;;;10472192;28;20510;-54
2024/02/04 12:54:23;;;;;;;10.23;2.20;;;23.30;40.90;;;;;;10460523;28;20045;-49
2024/02/04 12:59:26;;;;;;;7.10;2.05;;;23.30;40.80;;;;;;10457904;28;20048;-47
2024/02/04 13:04:34;;;;;;;7.97;1.98;;;23.30;41.10;;;;;;10458579;28;20148;-51
2024/02/04 13:09:36;;;;;;;7.13;2.00;;;23.40;41.60;;;;;;10461286;28;20124;-49
2024/02/04 13:14:38;;;;;;;4.47;1.80;;;23.40;41.70;;;;;;10460391;28;20588;-51
2024/02/04 13:19:42;;;;;;;7.43;1.92;;;23.40;41.90;;;;;;10457435;28;20494;-47
2024/02/04 13:24:43;;;;;;;6.88;1.67;;;23.30;41.00;;;;;;10466379;28;20502;-55
2024/02/04 13:29:45;;;;;;;7.60;2.08;;;23.30;41.00;;;;;;10469843;28;20131;-55
2024/02/04 13:34:49;;;;;;;5.28;1.70;;;23.30;41.20;;;;;;10453557;28;20132;-53
2024/02/04 13:39:50;;;;;;;6.05;1.63;;;23.40;41.50;;;;;;10454698;28;20399;-56
2024/02/04 13:44:52;;;;;;;6.38;2.28;;;23.50;41.40;;;;;;10458124;28;20083;-51
2024/02/04 13:49:55;;;;;;;8.90;3.47;;;23.50;41.80;;;;;;10459602;28;20128;-57
2024/02/04 13:54:57;;;;;;;7.00;3.00;;;23.40;42.30;;;;;;10460337;28;20055;-52
2024/02/04 13:59:58;;;;;;;11.07;3.50;;;23.40;43.10;;;;;;10470451;28;20726;-58
2024/02/04 14:05:01;;;;;;;31.60;8.93;;;23.30;44.10;;;;;;10460814;28;20053;-56
2024/02/04 14:10:03;;;;;;;35.30;13.10;;;23.20;46.00;;;;;;10457926;28;20131;-53
2024/02/04 14:15:06;;;;;;;35.50;13.95;;;23.20;47.50;;;;;;10456346;28;20689;-53
2024/02/04 14:20:10;;;;;;;42.13;14.85;;;23.30;48.20;;;;;;10453575;28;20127;-52
2024/02/04 14:25:12;;;;;;;40.70;13.23;;;23.30;48.90;;;;;;10456180;28;20092;-55
2024/02/04 14:30:14;;;;;;;88.80;14.95;;;23.30;49.80;;;;;;10459021;28;20127;-56
2024/02/04 14:35:17;;;;;;;86.82;14.55;;;23.10;50.90;;;;;;10457257;28;20120;-51
2024/02/04 14:40:18;;;;;;;49.38;12.80;;;23.10;51.60;;;;;;10463109;28;20068;-54
2024/02/04 14:45:20;;;;;;;44.35;10.30;;;23.40;50.40;;;;;;10464704;28;20131;-48
2024/02/04 14:50:23;;;;;;;42.50;10.45;;;23.60;49.60;;;;;;10454412;28;21139;-52
2024/02/04 14:55:25;;;;;;;32.22;9.13;;;23.60;49.30;;;;;;10456130;28;20095;-51
2024/02/04 15:00:27;;;;;;;22.73;7.68;;;23.70;48.20;;;;;;10448667;28;20044;-49
2024/02/04 15:05:31;;;;;;;20.58;6.38;;;23.70;47.50;;;;;;10460186;28;20586;-49
2024/02/04 15:10:33;;;;;;;19.33;5.95;;;23.60;47.30;;;;;;10457803;28;20736;-50
2024/02/04 15:15:35;;;;;;;18.80;4.93;;;23.80;46.40;;;;;;10455793;28;20612;-53
2024/02/04 15:20:40;;;;;;;14.73;4.80;;;23.70;46.00;;;;;;10451179;28;20045;-55
2024/02/04 15:25:42;;;;;;;13.70;4.15;;;23.70;45.40;;;;;;10453720;28;20049;-50
2024/02/04 15:30:45;;;;;;;13.18;4.30;;;23.80;44.80;;;;;;10457302;28;20110;-52
2024/02/04 15:35:48;;;;;;;12.65;4.22;;;23.80;44.50;;;;;;10447265;28;20053;-50
2024/02/04 15:40:50;;;;;;;11.68;3.53;;;23.70;44.50;;;;;;10455177;28;20049;-50
2024/02/04 15:45:52;;;;;;;12.68;3.95;;;23.80;44.40;;;;;;10458974;28;20514;-53
2024/02/04 15:50:56;;;;;;;10.50;3.58;;;23.80;44.40;;;;;;10456196;28;20147;-51
2024/02/04 15:55:58;;;;;;;11.32;3.22;;;23.80;44.40;;;;;;10458134;28;20156;-49
2024/02/04 16:00:59;;;;;;;13.13;4.00;;;23.60;44.20;;;;;;10447828;28;20140;-49
2024/02/04 16:06:03;;;;;;;12.63;3.55;;;23.60;44.00;;;;;;10457008;28;20136;-47
2024/02/04 16:11:06;;;;;;;13.27;3.85;;;23.50;44.90;;;;;;10447167;28;20132;-54
2024/02/04 16:16:08;;;;;;;14.82;3.72;;;23.50;45.30;;;;;;10454252;28;20449;-46
2024/02/04 16:21:11;;;;;;;13.05;3.47;;;23.50;44.60;;;;;;10455796;28;20492;-45
2024/02/04 16:26:13;;;;;;;10.32;3.60;;;23.50;44.70;;;;;;10460529;28;20144;-47
2024/02/04 16:31:14;;;;;;;16.08;3.30;;;23.60;44.60;;;;;;10460764;28;20041;-45
2024/02/04 16:36:17;;;;;;;12.15;3.13;;;23.60;44.30;;;;;;10469420;28;20044;-46
2024/02/04 16:41:19;;;;;;;11.70;3.00;;;23.50;44.40;;;;;;10459292;28;20045;-45
2024/02/04 16:46:21;;;;;;;14.55;3.08;;;23.60;44.10;;;;;;10452714;28;20471;-46
2024/02/04 16:51:24;;;;;;;9.95;2.67;;;23.50;44.00;;;;;;10449416;28;20147;-52
2024/02/04 16:56:25;;;;;;;15.20;2.92;;;23.60;44.00;;;;;;10456030;28;20127;-45
2024/02/04 17:01:27;;;;;;;22.45;3.45;;;23.60;44.40;;;;;;10464499;28;20127;-50
2024/02/04 17:06:31;;;;;;;18.67;3.80;;;23.70;44.90;;;;;;10463018;28;20041;-45
2024/02/04 17:11:33;;;;;;;24.95;4.45;;;23.60;45.90;;;;;;10465865;28;20052;-49
2024/02/04 17:16:44;;;;;;;14.02;3.42;;;23.70;45.80;;;;;;10455514;28;20136;-45
2024/02/04 17:21:50;;;;;;;15.35;3.28;;;23.80;46.00;;;;;;10463722;28;20136;-46
2024/02/04 17:26:54;;;;;;;11.57;3.20;;;23.80;45.90;;;;;;10449973;28;20102;-48
2024/02/04 17:31:57;;;;;;;9.38;2.92;;;23.70;46.00;;;;;;10453478;28;20151;-48
2024/02/04 17:37:00;;;;;;;9.57;3.05;;;23.80;46.00;;;;;;10459026;28;20494;-49
2024/02/04 17:42:05;;;;;;;7.55;2.78;;;23.60;46.70;;;;;;10454557;28;20044;-48
2024/02/04 17:47:07;;;;;;;11.27;2.83;;;23.40;47.90;;;;;;10463517;28;20048;-52
2024/02/04 17:52:10;;;;;;;13.77;2.97;;;23.30;48.20;;;;;;10467044;28;20139;-48
2024/02/04 17:57:11;;;;;;;9.10;2.50;;;23.30;48.20;;;;;;10456021;28;20053;-51
2024/02/04 18:02:13;;;;;;;8.15;2.33;;;23.40;48.50;;;;;;10456228;28;20140;-48
2024/02/04 18:07:18;;;;;;;8.43;2.65;;;23.50;48.50;;;;;;10449489;28;20055;-51
2024/02/04 18:12:20;;;;;;;9.82;2.58;;;23.70;48.30;;;;;;10454678;28;20043;-53
2024/02/04 18:17:22;;;;;;;15.60;3.28;;;23.80;48.60;;;;;;10460342;28;20110;-49
2024/02/04 18:22:25;;;;;;;10.63;2.60;;;23.50;49.40;;;;;;10451786;28;20128;-49
2024/02/04 18:27:26;;;;;;;9.35;2.40;;;23.70;49.30;;;;;;10455002;28;20754;-52
2024/02/04 18:32:28;;;;;;;13.15;2.70;;;23.70;50.00;;;;;;10451975;28;20805;-48
2024/02/04 18:37:31;;;;;;;7.47;2.53;;;23.60;50.70;;;;;;10458372;28;20098;-52
2024/02/04 18:42:33;;;;;;;14.23;2.05;;;23.60;50.90;;;;;;10453085;28;20135;-48
2024/02/04 18:47:35;;;;;;;10.32;2.20;;;23.80;50.90;;;;;;10448863;28;20037;-54
2024/02/04 18:52:38;;;;;;;8.50;1.88;;;23.80;51.10;;;;;;10452948;28;20060;-53
2024/02/04 18:57:43;;;;;;;10.38;2.50;;;23.80;51.40;;;;;;10462129;28;20064;-54
2024/02/04 19:02:45;;;;;;;12.23;2.60;;;24.10;50.90;;;;;;10464871;28;20040;-48
2024/02/04 19:07:48;;;;;;;11.13;2.22;;;23.90;51.50;;;;;;10457873;28;20131;-48
2024/02/04 19:12:49;;;;;;;9.73;1.98;;;24.20;50.50;;;;;;10450998;28;20517;-48
2024/02/04 19:17:51;;;;;;;11.00;2.10;;;24.50;49.40;;;;;;10455830;28;20096;-53
2024/02/04 19:22:54;;;;;;;8.20;1.95;;;24.60;48.70;;;;;;10452962;28;20141;-50
2024/02/04 19:27:56;;;;;;;6.85;2.33;;;24.50;48.40;;;;;;10448559;28;20126;-52
2024/02/04 19:32:58;;;;;;;4.50;1.90;;;24.50;48.20;;;;;;10459444;28;20097;-56
2024/02/04 19:38:02;;;;;;;4.18;1.67;;;24.50;48.30;;;;;;10459774;28;20051;-54
2024/02/04 19:43:03;;;;;;;7.82;1.75;;;24.50;48.20;;;;;;10465208;28;20041;-51
2024/02/04 19:48:08;;;;;;;7.05;2.30;;;24.40;48.10;;;;;;10455434;28;20136;-52
2024/02/04 19:53:11;;;;;;;5.95;2.10;;;24.40;48.30;;;;;;10464241;28;20106;-51
2024/02/04 19:58:12;;;;;;;7.43;2.25;;;24.40;48.30;;;;;;10456487;28;20411;-52
2024/02/04 20:03:16;;;;;;;6.20;1.58;;;24.30;48.00;;;;;;10454841;28;20067;-50
2024/02/04 20:08:19;;;;;;;6.88;1.50;;;24.30;47.70;;;;;;10462980;28;21662;-52
2024/02/04 20:13:21;;;;;;;5.43;1.77;;;24.30;47.90;;;;;;10465547;28;20044;-55
2024/02/04 20:18:23;;;;;;;6.97;2.17;;;24.20;48.10;;;;;;10455317;28;20091;-50
2024/02/04 20:23:26;;;;;;;7.82;2.17;;;24.20;48.30;;;;;;10459586;28;20103;-50
2024/02/04 20:28:27;;;;;;;9.18;1.73;;;24.10;48.30;;;;;;10455185;28;20147;-50
2024/02/04 20:33:29;;;;;;;8.07;1.70;;;23.90;48.70;;;;;;10463191;28;20045;-51
2024/02/04 20:38:32;;;;;;;7.60;1.42;;;24.00;48.40;;;;;;10453913;28;20135;-53
2024/02/04 20:43:33;;;;;;;4.93;1.63;;;23.90;48.20;;;;;;10462354;28;20143;-53
2024/02/04 20:48:35;;;;;;;8.40;1.52;;;23.90;48.00;;;;;;10468701;28;20132;-50
2024/02/04 20:53:38;;;;;;;7.70;1.63;;;23.80;48.00;;;;;;10461576;28;20554;-53
2024/02/04 20:58:40;;;;;;;10.98;1.70;;;23.60;48.00;;;;;;10456938;28;20048;-50
2024/02/04 21:03:42;;;;;;;10.43;1.80;;;23.60;48.00;;;;;;10450267;28;20163;-52
2024/02/04 21:08:45;;;;;;;11.07;1.40;;;23.60;47.70;;;;;;10457415;28;20478;-50
2024/02/04 21:13:47;;;;;;;5.57;1.50;;;23.50;48.30;;;;;;10455515;28;20132;-50
2024/02/04 21:18:48;;;;;;;6.18;1.75;;;23.50;48.00;;;;;;10461993;28;20052;-54
2024/02/04 21:23:51;;;;;;;6.13;1.70;;;23.30;48.20;;;;;;10457459;28;20566;-51
2024/02/04 21:28:53;;;;;;;7.65;1.75;;;23.20;48.10;;;;;;10461516;28;20168;-52
2024/02/04 21:33:54;;;;;;;3.83;1.30;;;23.30;48.10;;;;;;10459149;28;20147;-52
2024/02/04 21:38:57;;;;;;;3.60;1.30;;;23.20;48.10;;;;;;10449981;28;20072;-51
2024/02/04 21:43:59;;;;;;;5.68;1.40;;;23.10;48.10;;;;;;10450908;28;20567;-50
2024/02/04 21:49:01;;;;;;;4.72;1.20;;;23.00;48.00;;;;;;10458000;28;20041;-51
2024/02/04 21:54:05;;;;;;;2.50;1.10;;;23.00;48.00;;;;;;10460480;28;20098;-50
2024/02/04 21:59:06;;;;;;;5.22;1.65;;;23.10;47.90;;;;;;10461054;28;20585;-52
2024/02/04 22:04:08;;;;;;;2.63;1.17;;;23.00;47.80;;;;;;10459505;28;20136;-53
2024/02/04 22:09:11;;;;;;;4.75;1.50;;;23.00;47.60;;;;;;10464254;28;20041;-56
2024/02/04 22:14:13;;;;;;;2.90;1.23;;;22.90;47.80;;;;;;10470080;28;20046;-50
2024/02/04 22:19:15;;;;;;;3.88;1.13;;;22.90;47.40;;;;;;10440166;28;20047;-49
2024/02/04 22:24:17;;;;;;;4.70;1.27;;;22.90;47.30;;;;;;10452367;28;20148;-48
2024/02/04 22:29:19;;;;;;;4.25;1.05;;;22.90;47.30;;;;;;10454889;28;20068;-49
2024/02/04 22:34:22;;;;;;;4.13;1.10;;;22.70;47.90;;;;;;10454096;28;20087;-52
2024/02/04 22:39:25;;;;;;;3.55;1.13;;;22.60;48.10;;;;;;10461904;28;20306;-48
2024/02/04 22:44:26;;;;;;;2.60;1.33;;;22.60;47.80;;;;;;10464569;28;20140;-51
2024/02/04 22:49:28;;;;;;;3.65;0.98;;;22.50;48.20;;;;;;10458576;28;20133;-48
2024/02/04 22:54:31;;;;;;;3.20;1.08;;;22.70;47.90;;;;;;10456748;28;20590;-49
2024/02/04 22:59:32;;;;;;;3.70;1.10;;;22.60;47.80;;;;;;10448293;28;20136;-52
2024/02/04 23:04:35;;;;;;;3.70;1.05;;;22.70;47.80;;;;;;10459683;28;20128;-48
2024/02/04 23:09:38;;;;;;;1.98;0.90;;;22.70;47.60;;;;;;10458262;28;20107;-48
2024/02/04 23:14:40;;;;;;;1.27;0.75;;;22.70;47.50;;;;;;10463644;28;20135;-50
2024/02/04 23:19:41;;;;;;;2.17;0.85;;;22.70;47.30;;;;;;10457506;28;20071;-48
2024/02/04 23:24:44;;;;;;;2.47;0.95;;;22.70;47.30;;;;;;10469985;28;20127;-50
2024/02/04 23:29:46;;;;;;;3.33;1.00;;;22.70;47.00;;;;;;10465648;28;20132;-48
2024/02/04 23:34:47;;;;;;;2.17;0.82;;;22.70;47.30;;;;;;10455018;28;20135;-49
2024/02/04 23:39:51;;;;;;;3.88;1.25;;;22.70;47.90;;;;;;10467573;28;20131;-50
2024/02/04 23:44:52;;;;;;;2.33;1.00;;;22.80;46.90;;;;;;10475160;28;20174;-48
2024/02/04 23:49:54;;;;;;;4.50;1.10;;;22.60;46.80;;;;;;10464542;28;20132;-56
2024/02/04 23:54:57;;;;;;;2.45;1.02;;;22.60;47.00;;;;;;10465898;28;20049;-52
2024/02/04 23:59:59;;;;;;;1.90;0.98;;;22.50;47.00;;;;;;10466935;28;20102;-48
